createdAt,value
2018-10-09T00:01:46.993Z,28.33
2018-10-09T00:04:24.696Z,24.57
2018-10-09T00:06:58.305Z,20.93
2018-10-09T00:09:31.666Z,19.60
2018-10-09T00:12:04.298Z,16.33
2018-10-09T00:14:36.949Z,20.40
2018-10-09T00:17:09.721Z,19.67
2018-10-09T00:19:42.629Z,17.17
2018-10-09T00:22:16.286Z,15.47
2018-10-09T00:24:49.203Z,15.23
2018-10-09T00:27:22.202Z,14.07
2018-10-09T00:29:54.560Z,13.70
2018-10-09T00:32:32.666Z,16.35
2018-10-09T00:35:05.184Z,20.23
2018-10-09T00:37:38.008Z,19.77
2018-10-09T00:40:10.988Z,19.83
2018-10-09T00:42:43.510Z,23.67
2018-10-09T00:45:16.014Z,22.20
2018-10-09T00:47:49.707Z,21.37
2018-10-09T00:50:22.498Z,18.13
2018-10-09T00:53:01.527Z,17.00
2018-10-09T00:55:33.933Z,18.63
2018-10-09T00:58:06.520Z,18.33
2018-10-09T01:00:38.886Z,14.20
2018-10-09T01:03:11.528Z,12.70
2018-10-09T01:05:44.056Z,14.63
2018-10-09T01:08:16.495Z,13.30
2018-10-09T01:10:48.984Z,14.33
2018-10-09T01:13:22.177Z,13.20
2018-10-09T01:15:54.967Z,14.70
2018-10-09T01:18:27.548Z,10.87
2018-10-09T01:21:00.308Z,13.50
2018-10-09T01:23:33.222Z,14.20
2018-10-09T01:26:07.043Z,15.60
2018-10-09T01:28:39.679Z,11.83
2018-10-09T01:31:12.224Z,12.93
2018-10-09T01:33:45.174Z,13.77
2018-10-09T01:36:17.619Z,12.40
2018-10-09T01:38:50.184Z,12.53
2018-10-09T01:41:27.568Z,14.00
2018-10-09T01:44:00.194Z,15.13
2018-10-09T01:46:32.621Z,13.63
2018-10-09T01:49:05.129Z,19.33
2018-10-09T01:51:38.206Z,15.80
2018-10-09T01:54:11.167Z,14.70
2018-10-09T01:56:43.661Z,15.43
2018-10-09T01:59:16.542Z,15.43
2018-10-09T02:01:49.013Z,18.40
2018-10-09T02:04:21.736Z,17.13
2018-10-09T02:06:54.151Z,17.17
2018-10-09T02:09:27.735Z,18.93
2018-10-09T02:12:00.253Z,15.37
2018-10-09T02:14:34.819Z,17.93
2018-10-09T02:17:07.492Z,17.03
2018-10-09T02:19:40.212Z,15.07
2018-10-09T02:22:18.617Z,14.67
2018-10-09T02:24:56.748Z,14.37
2018-10-09T02:27:29.163Z,13.53
2018-10-09T02:30:01.942Z,13.40
2018-10-09T02:32:34.452Z,15.32
2018-10-09T02:35:07.224Z,16.40
2018-10-09T02:37:39.745Z,16.48
2018-10-09T02:40:18.621Z,12.73
2018-10-09T02:42:51.139Z,13.87
2018-10-09T02:45:23.812Z,9.87
2018-10-09T02:47:56.417Z,11.00
2018-10-09T02:50:29.093Z,9.93
2018-10-09T02:53:01.725Z,9.37
2018-10-09T02:55:34.461Z,11.57
2018-10-09T02:58:06.940Z,7.00
2018-10-09T03:00:39.313Z,6.77
2018-10-09T03:03:13.465Z,11.43
2018-10-09T03:05:46.000Z,13.07
2018-10-09T03:08:18.888Z,11.70
2018-10-09T03:10:58.684Z,12.17
2018-10-09T03:13:32.187Z,11.60
2018-10-09T03:16:05.321Z,10.40
2018-10-09T03:18:37.777Z,11.10
2018-10-09T03:21:10.604Z,11.45
2018-10-09T03:23:43.304Z,14.57
2018-10-09T03:26:18.939Z,10.73
2018-10-09T03:28:52.290Z,15.37
2018-10-09T03:31:26.521Z,18.20
2018-10-09T03:33:59.422Z,14.47
2018-10-09T03:36:32.160Z,15.40
2018-10-09T03:39:06.046Z,14.60
2018-10-09T03:41:39.290Z,12.63
2018-10-09T03:44:17.648Z,12.90
2018-10-09T03:46:50.100Z,9.13
2018-10-09T03:49:22.681Z,6.57
2018-10-09T03:51:55.336Z,6.67
2018-10-09T03:54:27.632Z,6.03
2018-10-09T03:57:00.038Z,5.60
2018-10-09T03:59:32.731Z,4.23
2018-10-09T04:02:05.344Z,5.57
2018-10-09T04:04:44.018Z,4.60
2018-10-09T04:07:16.696Z,4.17
2018-10-09T04:09:49.245Z,6.30
2018-10-09T04:12:21.708Z,4.07
2018-10-09T04:14:54.320Z,3.73
2018-10-09T04:17:26.833Z,8.53
2018-10-09T04:19:59.287Z,12.77
2018-10-09T04:22:31.776Z,12.53
2018-10-09T04:25:04.496Z,10.37
2018-10-09T04:27:37.010Z,9.53
2018-10-09T04:30:09.417Z,9.13
2018-10-09T04:32:42.665Z,9.23
2018-10-09T04:35:15.053Z,7.60
2018-10-09T04:37:47.441Z,5.40
2018-10-09T04:40:19.805Z,7.20
2018-10-09T04:42:52.227Z,6.97
2018-10-09T04:45:25.096Z,5.73
2018-10-09T04:47:57.677Z,2.70
2018-10-09T04:50:30.628Z,8.23
2018-10-09T04:53:03.246Z,11.20
2018-10-09T04:55:35.830Z,10.67
2018-10-09T04:58:08.653Z,11.93
2018-10-09T05:00:48.417Z,6.07
2018-10-09T05:03:21.234Z,9.47
2018-10-09T05:05:53.746Z,14.17
2018-10-09T05:08:26.500Z,13.73
2018-10-09T05:10:58.928Z,12.63
2018-10-09T05:13:31.864Z,13.10
2018-10-09T05:16:04.571Z,11.10
2018-10-09T05:18:37.095Z,5.40
2018-10-09T05:21:09.503Z,3.87
2018-10-09T05:23:41.908Z,4.43
2018-10-09T05:27:43.305Z,5.03
2018-10-09T05:30:22.836Z,3.33
2018-10-09T05:33:02.273Z,3.07
2018-10-09T05:35:35.100Z,3.17
2018-10-09T05:38:08.428Z,3.60
2018-10-09T05:40:40.770Z,9.30
2018-10-09T05:43:13.299Z,4.72
2018-10-09T05:45:45.740Z,7.30
2018-10-09T05:48:18.317Z,6.77
2018-10-09T05:50:50.833Z,8.90
2018-10-09T05:53:23.159Z,10.00
2018-10-09T05:55:55.712Z,11.43
2018-10-09T05:58:28.257Z,12.87
2018-10-09T06:01:00.785Z,14.03
2018-10-09T06:03:33.562Z,9.53
2018-10-09T06:15:06.888Z,3.30
2018-10-09T06:17:39.542Z,3.20
2018-10-09T06:20:17.521Z,3.13
2018-10-09T06:22:50.000Z,4.20
2018-10-09T06:25:22.457Z,2.85
2018-10-09T06:27:55.182Z,7.23
2018-10-09T06:30:28.259Z,5.67
2018-10-09T06:33:04.761Z,11.60
2018-10-09T06:35:38.242Z,16.20
2018-10-09T06:38:12.082Z,16.83
2018-10-09T06:40:45.273Z,12.23
2018-10-09T06:43:18.003Z,12.60
2018-10-09T06:45:51.617Z,11.53
2018-10-09T06:48:24.335Z,11.27
2018-10-09T06:50:56.804Z,10.63
2018-10-09T06:53:29.505Z,7.63
2018-10-09T06:56:02.382Z,3.77
2018-10-09T06:58:34.951Z,4.43
2018-10-09T07:01:08.059Z,3.83
2018-10-09T07:03:40.711Z,1.80
2018-10-09T07:06:15.683Z,2.73
2018-10-09T07:08:49.019Z,3.83
2018-10-09T07:11:22.877Z,4.27
2018-10-09T07:13:55.534Z,4.90
2018-10-09T07:16:28.195Z,3.10
2018-10-09T07:19:06.097Z,2.37
2018-10-09T07:21:39.010Z,4.63
2018-10-09T07:24:12.729Z,4.00
2018-10-09T07:26:45.914Z,7.43
2018-10-09T07:29:18.617Z,9.90
2018-10-09T07:31:52.418Z,7.67
2018-10-09T07:34:25.267Z,7.50
2018-10-09T07:36:57.941Z,8.40
2018-10-09T07:39:30.377Z,9.43
2018-10-09T07:42:02.972Z,11.60
2018-10-09T07:44:41.377Z,10.07
2018-10-09T07:47:14.258Z,13.23
2018-10-09T07:49:47.215Z,15.63
2018-10-09T07:52:20.231Z,14.10
2018-10-09T07:54:52.724Z,15.77
2018-10-09T07:57:26.197Z,13.30
2018-10-09T07:59:59.543Z,11.47
2018-10-09T08:02:32.908Z,10.60
2018-10-09T08:05:05.677Z,8.97
2018-10-09T08:07:38.643Z,10.80
2018-10-09T08:10:11.372Z,9.23
2018-10-09T08:12:51.547Z,7.03
2018-10-09T08:15:24.028Z,8.93
2018-10-09T08:17:56.579Z,7.93
2018-10-09T08:20:29.319Z,9.80
2018-10-09T08:23:02.188Z,9.30
2018-10-09T08:25:36.015Z,9.63
2018-10-09T08:28:09.501Z,11.55
2018-10-09T08:35:38.530Z,12.10
2018-10-09T08:38:17.080Z,10.73
2018-10-09T08:40:50.037Z,11.13
2018-10-09T08:43:23.074Z,12.37
2018-10-09T08:45:56.425Z,12.87
2018-10-09T08:48:29.956Z,11.83
2018-10-09T08:51:03.041Z,11.70
2018-10-09T08:53:36.240Z,14.10
2018-10-09T08:56:09.435Z,13.13
2018-10-09T08:58:42.691Z,15.97
2018-10-09T09:01:15.362Z,17.03
2018-10-09T09:03:48.425Z,15.53
2018-10-09T09:06:23.028Z,17.43
2018-10-09T09:08:55.571Z,17.20
2018-10-09T09:11:28.415Z,18.47
2018-10-09T09:14:01.761Z,20.63
2018-10-09T09:16:34.267Z,17.40
2018-10-09T09:19:07.492Z,17.27
2018-10-09T09:21:41.027Z,17.97
2018-10-09T09:24:14.053Z,22.60
2018-10-09T09:26:48.065Z,22.67
2018-10-09T09:29:21.698Z,22.27
2018-10-09T09:31:56.008Z,19.97
2018-10-09T09:34:29.695Z,26.07
2018-10-09T09:37:03.570Z,18.53
2018-10-09T09:39:36.998Z,16.97
2018-10-09T09:42:10.400Z,18.27
2018-10-09T09:44:43.103Z,21.00
2018-10-09T09:47:15.954Z,20.53
2018-10-09T09:49:48.718Z,20.73
2018-10-09T09:52:26.979Z,19.07
2018-10-09T09:54:59.461Z,18.47
2018-10-09T09:57:32.659Z,18.67
2018-10-09T10:00:05.482Z,17.73
2018-10-09T10:02:38.664Z,20.20
2018-10-09T10:05:17.989Z,18.70
2018-10-09T10:07:51.315Z,21.27
2018-10-09T10:10:23.962Z,22.03
2018-10-09T10:12:56.640Z,23.53
2018-10-09T10:15:29.560Z,24.43
2018-10-09T10:18:02.802Z,25.27
2018-10-09T10:20:35.360Z,22.63
2018-10-09T10:23:08.384Z,21.93
2018-10-09T10:25:40.959Z,23.07
2018-10-09T10:28:13.772Z,21.60
2018-10-09T10:30:46.310Z,19.50
2018-10-09T10:33:19.139Z,16.70
2018-10-09T10:35:57.016Z,21.57
2018-10-09T10:38:29.846Z,16.10
2018-10-09T10:41:02.448Z,19.13
2018-10-09T10:43:35.240Z,16.83
2018-10-09T10:46:07.953Z,18.73
2018-10-09T10:49:13.004Z,15.83
2018-10-09T10:51:50.392Z,13.43
2018-10-09T10:54:24.054Z,11.57
2018-10-09T10:56:57.100Z,7.80
2018-10-09T10:59:29.741Z,9.73
2018-10-09T11:02:02.913Z,13.13
2018-10-09T11:04:42.044Z,9.20
2018-10-09T11:07:15.434Z,16.23
2018-10-09T11:09:49.196Z,19.30
2018-10-09T11:12:22.298Z,14.13
2018-10-09T11:14:55.114Z,14.10
2018-10-09T11:17:34.164Z,9.97
2018-10-09T11:20:07.001Z,5.73
2018-10-09T11:22:39.542Z,3.00
2018-10-09T11:25:12.410Z,3.67
2018-10-09T11:27:45.421Z,4.13
2018-10-09T11:30:18.555Z,6.40
2018-10-09T11:32:51.479Z,5.50
2018-10-09T11:35:24.833Z,4.17
2018-10-09T11:38:07.291Z,4.90
2018-10-09T11:40:41.137Z,5.53
2018-10-09T11:43:19.892Z,4.60
2018-10-09T11:46:01.776Z,4.47
2018-10-09T11:48:35.428Z,4.03
2018-10-09T11:51:09.254Z,5.17
2018-10-09T11:53:41.984Z,5.97
2018-10-09T11:56:14.631Z,4.75
2018-10-09T11:58:47.430Z,7.23
2018-10-09T12:01:21.155Z,5.50
2018-10-09T12:03:57.660Z,10.35
2018-10-09T12:06:31.515Z,8.13
2018-10-09T12:09:06.449Z,12.27
2018-10-09T12:11:44.441Z,10.50
2018-10-09T12:14:17.371Z,6.27
2018-10-09T12:16:49.949Z,4.87
2018-10-09T12:19:23.347Z,6.70
2018-10-09T12:21:56.163Z,3.77
2018-10-09T12:24:28.919Z,4.77
2018-10-09T12:27:01.705Z,6.20
2018-10-09T12:29:42.015Z,5.40
2018-10-09T12:32:17.278Z,6.20
2018-10-09T12:34:52.052Z,4.77
2018-10-09T12:37:27.912Z,9.53
2018-10-09T12:40:03.295Z,5.60
2018-10-09T12:42:39.823Z,6.60
2018-10-09T12:45:18.294Z,3.73
2018-10-09T12:47:58.653Z,4.67
2018-10-09T12:50:32.367Z,4.47
2018-10-09T12:53:05.384Z,3.60
2018-10-09T12:55:41.422Z,3.47
2018-10-09T12:58:14.448Z,4.13
2018-10-09T13:00:48.197Z,5.23
2018-10-09T13:03:24.664Z,7.23
2018-10-09T13:05:58.109Z,5.63
2018-10-09T13:08:30.660Z,8.27
2018-10-09T13:11:03.696Z,5.53
2018-10-09T13:13:45.217Z,5.40
2018-10-09T13:16:17.844Z,5.63
2018-10-09T13:18:50.552Z,6.37
2018-10-09T13:21:23.785Z,6.80
2018-10-09T13:24:01.784Z,10.43
2018-10-09T13:26:35.099Z,13.00
2018-10-09T13:29:07.999Z,13.53
2018-10-09T13:31:40.683Z,13.60
2018-10-09T13:34:15.066Z,13.10
2018-10-09T13:36:48.590Z,11.00
2018-10-09T13:39:30.058Z,9.10
2018-10-09T13:42:05.203Z,6.70
2018-10-09T13:44:43.427Z,11.37
2018-10-09T13:47:15.985Z,19.53
2018-10-09T13:50:04.974Z,16.63
2018-10-09T13:52:43.378Z,18.20
2018-10-09T13:55:16.293Z,17.10
2018-10-09T13:57:49.969Z,14.37
2018-10-09T14:00:22.593Z,18.10
2018-10-09T14:02:55.485Z,16.93
2018-10-09T14:05:29.346Z,16.27
2018-10-09T14:08:06.539Z,14.93
2018-10-09T14:10:44.885Z,13.75
2018-10-09T14:13:17.767Z,14.27
2018-10-09T14:15:53.001Z,12.15
2018-10-09T14:18:29.073Z,15.97
2018-10-09T14:21:02.809Z,11.83
2018-10-09T14:23:39.888Z,11.17
2018-10-09T14:26:15.109Z,10.85
2018-10-09T14:28:48.557Z,10.20
2018-10-09T14:31:24.846Z,11.57
2018-10-09T14:33:57.573Z,11.90
2018-10-09T14:36:30.938Z,11.33
2018-10-09T14:39:06.096Z,12.50
2018-10-09T14:41:46.435Z,7.27
2018-10-09T14:44:20.467Z,11.10
2018-10-09T14:46:54.479Z,12.63
2018-10-09T14:49:29.000Z,9.87
2018-10-09T14:52:02.697Z,11.47
2018-10-09T14:54:36.865Z,8.93
2018-10-09T14:57:10.904Z,13.70
2018-10-09T14:59:43.589Z,11.70
2018-10-09T15:02:17.009Z,12.27
2018-10-09T15:04:51.777Z,11.40
2018-10-09T15:07:24.576Z,10.08
2018-10-09T15:10:06.746Z,13.67
2018-10-09T15:12:42.781Z,10.43
2018-10-09T15:15:16.555Z,11.47
2018-10-09T15:17:50.446Z,8.83
2018-10-09T15:20:24.840Z,11.00
2018-10-09T15:23:10.603Z,6.37
2018-10-09T15:25:49.233Z,7.23
2018-10-09T15:28:30.888Z,9.15
2018-10-09T15:31:09.655Z,12.27
2018-10-09T15:33:53.558Z,10.90
2018-10-09T15:36:44.304Z,8.60
2018-10-09T15:42:07.943Z,6.47
2018-10-09T15:44:44.459Z,7.77
2018-10-09T15:47:27.305Z,8.20
2018-10-09T15:50:06.594Z,6.63
2018-10-09T15:52:44.566Z,5.55
2018-10-09T15:58:26.178Z,4.30
2018-10-09T16:03:47.935Z,7.40
2018-10-09T16:06:27.926Z,4.30
2018-10-09T16:09:09.659Z,5.93
2018-10-09T16:11:48.811Z,13.83
2018-10-09T16:14:38.823Z,13.03
2018-10-09T16:17:14.515Z,7.57
2018-10-09T16:19:51.091Z,6.73
2018-10-09T16:22:29.239Z,5.07
2018-10-09T16:27:59.127Z,3.83
2018-10-09T16:30:47.776Z,4.77
2018-10-09T16:33:43.467Z,2.93
2018-10-09T16:36:24.214Z,6.00
2018-10-09T16:39:06.615Z,5.73
2018-10-09T16:41:45.415Z,6.97
2018-10-09T16:44:28.595Z,6.10
2018-10-09T16:47:07.280Z,6.23
2018-10-09T16:52:34.106Z,3.67
2018-10-09T16:55:12.425Z,6.43
2018-10-09T17:00:43.028Z,6.30
2018-10-09T17:03:24.746Z,7.40
2018-10-09T17:08:43.297Z,12.10
2018-10-09T17:11:29.253Z,4.27
2018-10-09T17:14:14.738Z,7.53
2018-10-09T17:16:53.061Z,8.93
2018-10-09T17:19:36.956Z,5.80
2018-10-09T17:22:23.689Z,5.70
2018-10-09T17:25:06.749Z,10.30
2018-10-09T17:28:01.802Z,9.40
2018-10-09T17:30:49.635Z,12.13
2018-10-09T17:33:31.028Z,9.30
2018-10-09T17:36:12.981Z,7.83
2018-10-09T17:39:09.814Z,8.23
2018-10-09T17:42:03.077Z,11.80
2018-10-09T17:44:44.089Z,6.80
2018-10-09T17:47:23.991Z,10.93
2018-10-09T17:50:11.212Z,8.93
2018-10-09T17:53:01.442Z,10.73
2018-10-09T17:55:42.909Z,11.90
2018-10-09T17:58:21.516Z,12.70
2018-10-09T18:00:55.793Z,16.60
2018-10-09T18:03:29.953Z,14.13
2018-10-09T18:06:14.259Z,14.57
2018-10-09T18:08:54.024Z,34.57
2018-10-09T18:11:44.401Z,17.37
2018-10-09T18:14:32.722Z,13.97
2018-10-09T18:17:14.111Z,16.20
2018-10-09T18:19:56.684Z,10.13
2018-10-09T18:22:42.538Z,9.98
2018-10-09T18:25:28.627Z,10.10
2018-10-09T18:28:29.144Z,11.43
2018-10-09T18:31:17.573Z,9.80
2018-10-09T18:33:59.674Z,12.03
2018-10-09T18:36:35.088Z,12.30
2018-10-09T18:39:13.553Z,11.17
2018-10-09T18:41:48.113Z,13.93
2018-10-09T18:44:22.797Z,11.40
2018-10-09T18:46:58.429Z,11.07
2018-10-09T18:49:31.750Z,11.87
2018-10-09T18:52:06.016Z,13.53
2018-10-09T18:54:39.034Z,13.40
2018-10-09T18:57:11.856Z,13.83
2018-10-09T18:59:45.391Z,9.07
2018-10-09T19:02:24.523Z,6.40
2018-10-09T19:05:01.182Z,6.83
2018-10-09T19:07:47.619Z,6.90
2018-10-09T19:10:21.975Z,7.63
2018-10-09T19:13:08.815Z,7.42
2018-10-09T19:15:44.001Z,8.00
2018-10-09T19:18:31.376Z,7.25
2018-10-09T19:21:15.128Z,8.47
2018-10-09T19:24:10.484Z,6.90
2018-10-09T19:26:47.478Z,11.33
2018-10-09T19:29:46.126Z,9.37
2018-10-09T19:32:33.531Z,7.10
2018-10-09T19:35:16.841Z,9.27
2018-10-09T19:37:58.447Z,10.97
2018-10-09T19:40:51.776Z,12.27
2018-10-09T19:43:31.703Z,8.30
2018-10-09T19:46:09.459Z,9.27
2018-10-09T19:48:57.707Z,8.17
2018-10-09T19:51:38.099Z,8.20
2018-10-09T19:54:26.584Z,9.27
2018-10-09T19:57:07.576Z,8.20
2018-10-09T19:59:48.421Z,6.53
2018-10-09T20:05:39.933Z,4.97
2018-10-09T20:08:25.347Z,6.77
2018-10-09T20:11:10.852Z,8.23
2018-10-09T20:13:58.223Z,8.97
2018-10-09T20:16:43.480Z,9.00
2018-10-09T20:19:27.251Z,12.60
2018-10-09T20:22:02.427Z,9.67
2018-10-09T20:24:41.555Z,8.50
2018-10-09T20:30:15.997Z,5.97
2018-10-09T20:32:59.180Z,12.17
2018-10-09T20:35:36.427Z,11.07
2018-10-09T20:40:54.012Z,13.07
2018-10-09T20:43:30.850Z,11.73
2018-10-09T20:46:05.877Z,8.57
2018-10-09T20:48:40.876Z,10.20
2018-10-09T20:51:16.376Z,7.63
2018-10-09T20:53:51.625Z,7.63
2018-10-09T20:56:27.756Z,4.47
2018-10-09T20:59:07.669Z,5.40
2018-10-09T21:01:47.872Z,3.35
2018-10-09T21:04:26.201Z,6.90
2018-10-09T21:07:05.407Z,6.87
2018-10-09T21:09:48.141Z,6.20
2018-10-09T21:12:25.834Z,6.35
2018-10-09T21:15:01.035Z,5.23
2018-10-09T21:17:36.019Z,5.60
2018-10-09T21:20:08.453Z,6.90
2018-10-09T21:22:41.545Z,6.17
2018-10-09T21:25:14.024Z,5.20
2018-10-09T21:27:49.221Z,4.07
2018-10-09T21:30:27.104Z,4.07
2018-10-09T21:33:00.988Z,6.65
2018-10-09T21:35:34.407Z,7.93
2018-10-09T21:38:07.441Z,4.73
2018-10-09T21:40:40.141Z,6.27
2018-10-09T21:43:13.157Z,5.93
2018-10-09T21:45:45.904Z,7.83
2018-10-09T21:48:19.665Z,8.20
2018-10-09T21:50:53.567Z,8.23
2018-10-09T21:53:26.295Z,9.73
2018-10-09T21:55:58.824Z,9.53
2018-10-09T21:58:32.225Z,7.30
2018-10-09T22:01:08.863Z,4.97
2018-10-09T22:03:41.527Z,4.80
2018-10-09T22:06:14.192Z,4.83
2018-10-09T22:08:47.086Z,7.03
2018-10-09T22:11:19.747Z,5.10
2018-10-09T22:13:52.911Z,5.23
2018-10-09T22:16:25.392Z,4.97
2018-10-09T22:19:00.558Z,5.60
2018-10-09T22:21:34.977Z,5.47
2018-10-09T22:24:10.683Z,6.67
2018-10-09T22:26:48.865Z,8.13
2018-10-09T22:29:23.318Z,9.27
2018-10-09T22:32:01.374Z,5.97
2018-10-09T22:34:34.649Z,7.43
2018-10-09T22:37:07.626Z,6.57
2018-10-09T22:39:40.672Z,7.77
2018-10-09T22:42:13.342Z,8.20
2018-10-09T22:44:46.354Z,9.10
2018-10-09T22:47:19.163Z,9.73
2018-10-09T22:49:52.473Z,11.23
2018-10-09T22:52:30.249Z,10.90
2018-10-09T22:55:02.865Z,10.50
2018-10-09T22:57:41.882Z,18.23
2018-10-09T23:00:14.611Z,20.57
2018-10-09T23:02:51.561Z,23.40
2018-10-09T23:05:24.161Z,14.90
2018-10-09T23:07:56.889Z,9.87
2018-10-09T23:10:30.359Z,9.60
2018-10-09T23:13:02.905Z,10.00
2018-10-09T23:15:36.792Z,8.47
2018-10-09T23:18:09.278Z,8.63
2018-10-09T23:20:41.959Z,9.27
2018-10-09T23:23:15.427Z,8.73
2018-10-09T23:25:49.114Z,11.37
2018-10-09T23:28:22.187Z,6.73
2018-10-09T23:30:55.191Z,10.47
2018-10-09T23:33:27.936Z,10.87
2018-10-09T23:36:05.264Z,6.90
2018-10-09T23:38:39.408Z,6.23
2018-10-09T23:41:14.045Z,7.67
2018-10-09T23:43:51.654Z,6.50
2018-10-09T23:46:27.271Z,11.97
2018-10-09T23:48:59.940Z,5.63
2018-10-09T23:51:34.399Z,8.50
2018-10-09T23:54:06.764Z,9.63
2018-10-09T23:56:39.357Z,10.90
2018-10-09T23:59:11.870Z,14.07
